Terminal Aerodrome Forecast
Issued by NWS

Current Version | Previous Version | Text Only | Print | Product List | Glossary On
Versions: 1 2 3 4 5 6 7 8 9 10 11 12 13 14 15 16 17 18 19 20 21 22 23 24 25 26 27
000
FTUS42 KJAX 191700
TAFCRG
TAF
KCRG 191736Z 1918/2018 08008KT P6SM SCT030
      TEMPO 1921/1923 VRB15G25KT TSRA BKN025CB OVC100
     FM200200 06002KT P6SM SCT020 BKN100
     FM201500 05007KT P6SM BKN020=

USA.gov is the U.S. government's official web portal to all federal, state and local government web resources and services.